Time;durP1;ratioP1;P1;durP2;ratioP2;P2;SDS_P1;SDS_P2;PMS_P1;PMS_P2;Temp;Humidity;BMP_temperature;BMP_pressure;BME280_temperature;BME280_humidity;BME280_pressure;Samples;Min_cycle;Max_cycle;Signal;HPM_P1;HPM_P2
2023/06/27 00:00:17;;;;;;;0.53;0.53;;;;;;;21.96;51.18;95677.47;4325863;32;20190;-59
2023/06/27 00:02:46;;;;;;;0.30;0.30;;;;;;;22.01;51.24;95681.81;4309804;32;20245;-59
2023/06/27 00:05:13;;;;;;;0.70;0.70;;;;;;;21.94;48.09;95680.50;4263349;32;20261;-59
2023/06/27 00:07:44;;;;;;;0.20;0.20;;;;;;;21.81;47.42;95678.34;4320933;32;20197;-59
2023/06/27 00:10:10;;;;;;;1.20;0.90;;;;;;;21.79;47.39;95680.59;4308678;32;20307;-59
2023/06/27 00:12:37;;;;;;;0.47;0.47;;;;;;;21.78;47.40;95695.25;4329040;32;20209;-59
2023/06/27 00:15:05;;;;;;;0.47;0.47;;;;;;;21.88;51.00;95700.84;4320240;32;20197;-59
2023/06/27 00:17:33;;;;;;;0.50;0.50;;;;;;;21.85;51.07;95698.84;4326576;32;20248;-59
2023/06/27 00:20:03;;;;;;;0.60;0.60;;;;;;;21.77;49.24;95707.19;4309152;33;20209;-59
2023/06/27 00:22:30;;;;;;;0.50;0.50;;;;;;;21.86;47.35;95697.72;4280322;32;20202;-59
2023/06/27 00:24:57;;;;;;;0.70;0.70;;;;;;;21.84;50.53;95705.38;4316444;32;20190;-59
2023/06/27 00:27:23;;;;;;;0.40;0.40;;;;;;;21.74;48.99;95694.37;4303636;33;20249;-59
2023/06/27 00:29:51;;;;;;;1.60;0.53;;;;;;;21.72;49.39;95702.06;4301813;32;20212;-59
2023/06/27 00:32:19;;;;;;;0.63;0.63;;;;;;;21.73;49.16;95703.63;4321437;32;20200;-58
2023/06/27 00:34:44;;;;;;;0.30;0.30;;;;;;;21.61;48.39;95701.84;4321066;32;20194;-59
2023/06/27 00:37:09;;;;;;;0.83;0.83;;;;;;;21.65;49.52;95691.88;4304123;33;20252;-59
2023/06/27 00:39:36;;;;;;;0.43;0.40;;;;;;;21.57;49.04;95698.28;4329258;32;20235;-59
2023/06/27 00:42:04;;;;;;;0.30;0.30;;;;;;;21.59;49.50;95704.91;4323462;32;20198;-59
2023/06/27 00:44:31;;;;;;;0.70;0.70;;;;;;;21.62;50.39;95700.69;4316527;32;20237;-59
2023/06/27 00:47:01;;;;;;;21.97;0.93;;;;;;;21.54;48.34;95688.97;4330420;32;20198;-59
2023/06/27 00:49:30;;;;;;;0.90;0.90;;;;;;;21.61;49.78;95701.84;4270027;32;20230;-59
2023/06/27 00:51:58;;;;;;;0.57;0.57;;;;;;;21.58;48.75;95703.34;4298820;33;20194;-59
2023/06/27 00:54:23;;;;;;;0.27;0.27;;;;;;;21.53;47.81;95706.31;4310285;32;20201;-59
2023/06/27 00:56:53;;;;;;;0.30;0.30;;;;;;;21.67;50.19;95707.75;4318746;32;20194;-59
2023/06/27 00:59:21;;;;;;;3.37;1.23;;;;;;;21.58;48.63;95713.38;4289933;32;20252;-58
2023/06/27 01:01:49;;;;;;;0.53;0.53;;;;;;;21.57;48.70;95711.78;4320158;32;20198;-59
2023/06/27 01:04:15;;;;;;;0.70;0.70;;;;;;;21.52;48.80;95710.16;4305420;33;20240;-59
2023/06/27 01:07:01;;;;;;;0.23;0.23;;;;;;;21.49;49.81;95715.47;4318544;32;20316;-59
2023/06/27 01:09:50;;;;;;;0.50;0.20;;;;;;;21.35;50.61;95717.87;4316355;32;20197;-59
2023/06/27 01:13:11;;;;;;;0.70;0.70;;;;;;;21.43;49.67;95716.87;4317014;32;20211;-59
2023/06/27 01:15:39;;;;;;;0.83;0.40;;;;;;;21.42;49.92;95707.22;4313309;32;20193;-59
2023/06/27 01:18:09;;;;;;;0.30;0.30;;;;;;;21.44;50.60;95707.63;4327051;32;20212;-59
2023/06/27 01:20:36;;;;;;;0.17;0.17;;;;;;;21.54;53.87;95717.91;4323131;32;20208;-59
2023/06/27 01:23:22;;;;;;;0.40;0.40;;;;;;;;;;4323427;32;20264;-59
2023/06/27 01:26:09;;;;;;;0.30;0.30;;;;;;;21.43;50.97;95723.06;4319845;32;20197;-59
2023/06/27 01:28:36;;;;;;;0.17;0.17;;;;;;;21.47;52.64;95728.53;4318348;32;20186;-59
2023/06/27 01:31:03;;;;;;;0.30;0.30;;;;;;;21.39;52.04;95732.22;4322894;32;20202;-59
2023/06/27 01:33:59;;;;;;;0.57;0.57;;;;;;;21.35;50.98;95734.06;4325150;32;20205;-59
2023/06/27 01:36:43;;;;;;;0.30;0.30;;;;;;;21.30;49.44;95734.34;4309392;32;20198;-59
2023/06/27 01:39:26;;;;;;;0.20;0.20;;;;;;;21.38;51.99;95726.06;4321258;32;20293;-58
2023/06/27 01:42:18;;;;;;;2.37;0.47;;;;;;;21.32;51.02;95732.06;4332677;32;20190;-59
2023/06/27 01:44:48;;;;;;;0.47;0.47;;;;;;;21.15;50.10;95735.91;4324547;33;20204;-59
2023/06/27 01:47:16;;;;;;;0.40;0.40;;;;;;;21.18;51.73;95738.69;4300261;32;20201;-59
2023/06/27 01:49:45;;;;;;;0.37;0.37;;;;;;;21.20;50.79;95731.03;4329404;32;20201;-59
2023/06/27 01:52:15;;;;;;;2.73;0.87;;;;;;;21.32;54.39;95729.38;4316113;33;20253;-59
2023/06/27 01:54:45;;;;;;;0.83;0.83;;;;;;;21.20;51.55;95733.72;4326411;32;20194;-58
2023/06/27 01:57:15;;;;;;;0.60;0.50;;;;;;;21.20;50.67;95730.25;4317585;33;20243;-59
2023/06/27 01:59:45;;;;;;;0.40;0.40;;;;;;;21.27;52.18;95736.59;4303456;32;20384;-59
2023/06/27 02:02:11;;;;;;;2.90;0.73;;;;;;;21.19;51.50;95729.47;4311301;32;20194;-59
2023/06/27 02:04:38;;;;;;;0.40;0.40;;;;;;;21.21;53.72;95716.41;4331428;32;20261;-59
2023/06/27 02:07:05;;;;;;;0.23;0.23;;;;;;;21.04;51.27;95716.75;4316990;32;20197;-59
2023/06/27 02:09:31;;;;;;;0.20;0.20;;;;;;;21.00;51.22;95715.09;4315059;32;20241;-59
2023/06/27 02:11:58;;;;;;;0.47;0.47;;;;;;;20.96;50.98;95719.66;4313216;32;20194;-59
2023/06/27 02:14:24;;;;;;;0.60;0.60;;;;;;;20.99;51.46;95711.63;4306355;32;20205;-59
2023/06/27 02:16:49;;;;;;;0.37;0.37;;;;;;;21.04;51.04;95719.44;4307757;33;20173;-59
2023/06/27 02:19:16;;;;;;;12.53;0.97;;;;;;;21.05;50.97;95723.72;4318140;32;20228;-59
2023/06/27 02:21:42;;;;;;;0.60;0.60;;;;;;;20.97;51.10;95722.00;4337949;32;20281;-59
2023/06/27 02:24:08;;;;;;;0.20;0.20;;;;;;;20.98;53.01;95715.47;4330208;32;20295;-59
2023/06/27 02:26:34;;;;;;;0.37;0.37;;;;;;;20.87;50.95;95730.59;4307474;33;20250;-59
2023/06/27 02:29:00;;;;;;;0.57;0.40;;;;;;;20.99;52.60;95718.94;4329317;32;20198;-59
2023/06/27 02:31:28;;;;;;;0.23;0.23;;;;;;;21.03;52.96;95712.47;4312674;32;20232;-59
2023/06/27 02:33:55;;;;;;;0.53;0.53;;;;;;;20.97;52.46;95710.41;4294638;32;20286;-59
2023/06/27 02:36:25;;;;;;;0.60;0.60;;;;;;;20.86;51.15;95710.94;4327501;32;20275;-59
2023/06/27 02:38:56;;;;;;;0.93;0.93;;;;;;;21.09;54.84;95716.50;4317738;32;20197;-59
2023/06/27 02:41:23;;;;;;;0.60;0.60;;;;;;;21.04;52.29;95715.97;4300891;32;20202;-59
2023/06/27 02:43:50;;;;;;;0.27;0.27;;;;;;;20.85;51.72;95716.69;4323840;32;20217;-59
2023/06/27 02:46:16;;;;;;;0.17;0.17;;;;;;;20.93;52.00;95721.91;4300233;33;20221;-59
2023/06/27 02:48:44;;;;;;;0.40;0.40;;;;;;;20.82;51.47;95720.84;4294102;33;20203;-59
2023/06/27 02:51:12;;;;;;;0.50;0.50;;;;;;;20.88;52.99;95714.06;4331952;32;20264;-59
2023/06/27 02:53:38;;;;;;;0.20;0.20;;;;;;;20.93;52.35;95721.91;4311860;32;20574;-59
2023/06/27 02:56:07;;;;;;;1.17;0.53;;;;;;;20.72;51.42;95723.31;4323678;32;20189;-59
2023/06/27 02:58:34;;;;;;;1.43;0.90;;;;;;;20.98;55.37;95728.97;4321952;32;20190;-59
2023/06/27 03:01:03;;;;;;;0.60;0.60;;;;;;;21.06;53.08;95727.97;4312690;32;20252;-59
2023/06/27 03:03:29;;;;;;;0.60;0.60;;;;;;;21.02;53.26;95727.09;4309424;32;20201;-59
2023/06/27 03:05:55;;;;;;;0.30;0.30;;;;;;;20.97;52.61;95726.59;4326172;32;20182;-58
2023/06/27 03:08:21;;;;;;;0.40;0.40;;;;;;;20.76;52.22;95729.56;4320416;32;20260;-59
2023/06/27 03:10:49;;;;;;;0.10;0.10;;;;;;;20.92;53.32;95727.66;4315405;32;20194;-59
2023/06/27 03:13:16;;;;;;;0.40;0.40;;;;;;;20.87;51.77;95739.47;4298301;32;20213;-59
2023/06/27 03:15:42;;;;;;;0.77;0.77;;;;;;;20.84;53.22;95736.69;4300520;32;20248;-59
2023/06/27 03:18:12;;;;;;;0.23;0.23;;;;;;;20.71;52.35;95730.63;4325238;32;20380;-59
2023/06/27 03:20:40;;;;;;;0.30;0.30;;;;;;;20.73;53.19;95733.75;4310777;32;20327;-59
2023/06/27 03:23:07;;;;;;;1.47;1.07;;;;;;;20.84;52.46;95739.38;4314822;32;20190;-59
2023/06/27 03:25:33;;;;;;;2.93;0.77;;;;;;;20.67;51.46;95731.66;4287528;32;20298;-58
2023/06/27 03:27:59;;;;;;;0.40;0.40;;;;;;;20.54;51.89;95734.44;4304373;33;20210;-59
2023/06/27 03:30:25;;;;;;;0.27;0.27;;;;;;;20.71;52.30;95727.13;4317780;32;20189;-59
2023/06/27 03:32:51;;;;;;;0.90;0.90;;;;;;;20.61;52.42;95731.13;4320461;32;20336;-59
2023/06/27 03:35:17;;;;;;;0.17;0.17;;;;;;;20.57;52.95;95730.25;4331135;32;20197;-59
2023/06/27 03:37:42;;;;;;;0.80;0.80;;;;;;;20.63;53.14;95739.66;4309345;32;20206;-59
2023/06/27 03:40:09;;;;;;;0.60;0.60;;;;;;;20.57;52.66;95741.06;4317284;32;20312;-59
2023/06/27 03:42:35;;;;;;;0.27;0.27;;;;;;;20.66;53.10;95749.75;4323005;32;20205;-58
2023/06/27 03:45:01;;;;;;;0.43;0.43;;;;;;;20.55;52.20;95752.19;4306997;32;20239;-59
2023/06/27 03:47:30;;;;;;;0.77;0.77;;;;;;;20.50;52.75;95752.44;4324606;32;20203;-59
2023/06/27 03:49:56;;;;;;;0.20;0.20;;;;;;;20.52;52.61;95744.78;4296752;32;20198;-59
2023/06/27 03:52:25;;;;;;;0.37;0.37;;;;;;;20.47;51.72;95745.03;4319373;32;20182;-59
2023/06/27 03:54:50;;;;;;;6.77;1.67;;;;;;;20.53;53.14;95740.94;4324593;32;20198;-59
2023/06/27 03:57:15;;;;;;;2.00;0.50;;;;;;;20.53;54.24;95738.25;4328996;33;20240;-59
2023/06/27 03:59:42;;;;;;;0.83;0.50;;;;;;;20.53;53.38;95745.56;4287159;32;20332;-59
2023/06/27 04:02:07;;;;;;;0.47;0.43;;;;;;;20.53;53.16;95746.34;4310923;32;20213;-59
2023/06/27 04:04:35;;;;;;;0.87;0.27;;;;;;;20.50;53.10;95754.34;4323808;32;20201;-59
2023/06/27 04:07:00;;;;;;;2.63;0.57;;;;;;;20.48;53.02;95753.91;4320787;32;20194;-59
2023/06/27 04:09:30;;;;;;;0.40;0.40;;;;;;;20.49;52.89;95753.56;4304761;32;20210;-59
2023/06/27 04:11:59;;;;;;;1.70;0.53;;;;;;;20.47;53.46;95753.13;4273498;32;20232;-59
2023/06/27 04:14:25;;;;;;;0.50;0.50;;;;;;;20.54;53.54;95753.31;4325956;32;20193;-59
2023/06/27 04:16:52;;;;;;;0.50;0.50;;;;;;;20.39;51.91;95753.25;4289849;32;20500;-59
2023/06/27 04:19:18;;;;;;;0.47;0.47;;;;;;;20.59;55.74;95760.34;4326077;32;20186;-61
2023/06/27 04:21:44;;;;;;;0.33;0.33;;;;;;;20.54;53.02;95758.69;4315130;32;20205;-59
2023/06/27 04:24:12;;;;;;;2.37;0.80;;;;;;;20.50;53.37;95757.81;4327754;32;20207;-59
2023/06/27 04:26:42;;;;;;;0.60;0.60;;;;;;;20.42;53.35;95755.28;4299113;33;20302;-59
2023/06/27 04:29:09;;;;;;;0.50;0.50;;;;;;;20.35;52.41;95752.38;4336217;32;20201;-59
2023/06/27 04:31:37;;;;;;;0.50;0.50;;;;;;;20.45;54.20;95749.97;4298306;32;20220;-59
2023/06/27 04:34:03;;;;;;;1.20;1.10;;;;;;;20.40;52.33;95762.91;4333233;32;20273;-59
2023/06/27 04:36:30;;;;;;;0.10;0.10;;;;;;;20.47;53.91;95763.13;4321668;32;20225;-59
2023/06/27 04:38:57;;;;;;;0.70;0.60;;;;;;;20.44;52.74;95774.56;4309333;32;20194;-59
2023/06/27 04:41:22;;;;;;;1.80;0.73;;;;;;;20.35;51.66;95772.03;4315394;32;20185;-59
2023/06/27 04:43:48;;;;;;;0.47;0.30;;;;;;;20.54;54.22;95779.47;4302164;32;20243;-61
2023/06/27 04:46:17;;;;;;;0.57;0.57;;;;;;;20.47;52.43;95777.38;4299150;32;20225;-59
2023/06/27 04:48:44;;;;;;;0.20;0.20;;;;;;;20.45;53.02;95786.94;4323243;32;20216;-58
2023/06/27 04:51:11;;;;;;;0.40;0.40;;;;;;;20.45;53.33;95782.31;4310691;32;20204;-60
2023/06/27 04:53:38;;;;;;;1.30;1.20;;;;;;;20.68;57.42;95779.84;4317515;32;20204;-59
2023/06/27 04:56:03;;;;;;;0.30;0.30;;;;;;;20.53;54.02;95786.00;4294199;32;20206;-59
2023/06/27 04:58:30;;;;;;;7.90;0.90;;;;;;;20.33;51.51;95785.06;4325671;32;20232;-59
2023/06/27 05:00:58;;;;;;;0.40;0.30;;;;;;;20.31;52.35;95792.69;4314466;32;20206;-59
2023/06/27 05:03:24;;;;;;;0.40;0.40;;;;;;;20.42;54.88;95793.78;4315926;32;20186;-59
2023/06/27 05:05:50;;;;;;;0.30;0.30;;;;;;;20.31;51.86;95792.69;4346923;32;20201;-59
2023/06/27 05:08:16;;;;;;;0.67;0.67;;;;;;;20.35;53.85;95798.97;4353874;32;20197;-59
2023/06/27 05:10:46;;;;;;;1.17;0.73;;;;;;;20.26;52.53;95790.25;4312467;32;20288;-59
2023/06/27 05:13:11;;;;;;;0.30;0.30;;;;;;;20.34;54.48;95789.31;4350112;32;20212;-59
2023/06/27 05:15:36;;;;;;;0.50;0.50;;;;;;;20.44;54.26;95791.53;4336826;32;20208;-59
2023/06/27 05:18:12;;;;;;;0.23;0.23;;;;;;;20.39;55.50;95793.69;4324244;32;20202;-59
2023/06/27 05:20:39;;;;;;;0.20;0.20;;;;;;;20.33;53.39;95793.16;4328335;32;20282;-59
2023/06/27 05:23:07;;;;;;;0.70;0.70;;;;;;;20.16;52.65;95796.13;4322102;32;20201;-59
2023/06/27 05:25:33;;;;;;;0.67;0.60;;;;;;;20.14;53.57;95795.69;4335597;32;20246;-59
2023/06/27 05:28:00;;;;;;;1.37;1.27;;;;;;;20.21;54.98;95799.34;4335016;32;20197;-60
2023/06/27 05:30:29;;;;;;;3.13;2.07;;;;;;;20.86;59.00;95793.78;4299746;32;20218;-59
2023/06/27 05:33:01;;;;;;;0.90;0.87;;;;;;;20.97;56.22;95797.53;4318913;32;20243;-59
2023/06/27 05:35:28;;;;;;;0.70;0.70;;;;;;;21.17;55.52;95809.97;4336175;32;20197;-59
2023/06/27 05:37:54;;;;;;;1.20;1.10;;;;;;;21.12;54.74;95806.75;4352968;32;20193;-59
2023/06/27 05:40:23;;;;;;;5.93;4.83;;;;;;;21.24;55.82;95807.47;4337458;32;20194;-59
2023/06/27 05:42:50;;;;;;;17.90;5.97;;;;;;;21.30;55.93;95809.91;4324624;32;20207;-60
2023/06/27 05:45:16;;;;;;;9.63;5.43;;;;;;;21.44;54.77;95794.03;4329638;32;20194;-59
2023/06/27 05:47:42;;;;;;;0.90;0.90;;;;;;;21.53;53.47;95798.12;4357173;32;20192;-59
2023/06/27 05:50:10;;;;;;;2.03;1.90;;;;;;;21.05;51.05;95793.09;4350135;32;20319;-59
2023/06/27 05:52:36;;;;;;;2.10;1.87;;;;;;;21.30;52.78;95794.50;4318209;32;20201;-59
2023/06/27 05:55:02;;;;;;;0.43;0.43;;;;;;;21.46;52.51;95802.56;4354707;32;20247;-59
2023/06/27 05:57:27;;;;;;;4.63;2.43;;;;;;;21.10;51.96;95812.50;4344950;32;20197;-59
2023/06/27 05:59:54;;;;;;;1.67;1.57;;;;;;;21.34;53.59;95818.88;4339244;32;20200;-59
2023/06/27 06:02:20;;;;;;;4.17;2.43;;;;;;;21.33;53.65;95812.69;4333950;32;20216;-59
2023/06/27 06:04:45;;;;;;;12.00;1.53;;;;;;;21.44;53.66;95799.44;4338553;32;20270;-59
2023/06/27 06:07:12;;;;;;;0.97;0.97;;;;;;;21.02;54.00;95802.66;4315728;32;20240;-59
2023/06/27 06:09:37;;;;;;;1.17;0.97;;;;;;;21.26;53.53;95804.41;4354537;32;20208;-59
2023/06/27 06:12:04;;;;;;;1.07;0.70;;;;;;;21.28;53.42;95799.47;4315905;32;20205;-58
2023/06/27 06:14:30;;;;;;;0.30;0.30;;;;;;;21.00;53.72;95806.81;4358014;32;20185;-59
2023/06/27 06:16:56;;;;;;;2.23;0.93;;;;;;;20.97;53.77;95808.31;4346589;32;20231;-59
2023/06/27 06:19:22;;;;;;;0.60;0.53;;;;;;;20.88;53.74;95808.47;4346451;32;20233;-59
2023/06/27 06:21:48;;;;;;;0.90;0.90;;;;;;;21.12;53.51;95799.44;4327890;32;20209;-61
2023/06/27 06:24:15;;;;;;;1.00;1.00;;;;;;;21.28;53.50;95794.06;4330396;32;20177;-59
2023/06/27 06:26:44;;;;;;;1.13;1.13;;;;;;;21.37;52.88;95796.59;4304452;32;20339;-59
2023/06/27 06:29:13;;;;;;;0.30;0.30;;;;;;;21.03;52.81;95806.12;4326341;32;20227;-59
2023/06/27 06:31:40;;;;;;;0.67;0.67;;;;;;;21.12;52.70;95806.75;4358092;32;20249;-59
2023/06/27 06:34:07;;;;;;;7.10;0.90;;;;;;;20.93;51.26;95807.44;4332563;32;20199;-59
2023/06/27 06:36:32;;;;;;;0.40;0.40;;;;;;;21.06;52.04;95798.12;4303743;32;20193;-59
2023/06/27 06:38:59;;;;;;;0.57;0.57;;;;;;;21.10;52.95;95801.69;4341165;32;20197;-59
2023/06/27 06:41:25;;;;;;;1.20;1.10;;;;;;;21.12;52.71;95804.84;4341603;32;20192;-59
2023/06/27 06:43:51;;;;;;;0.93;0.93;;;;;;;20.82;54.05;95804.47;4343268;32;20212;-60
2023/06/27 06:46:21;;;;;;;0.43;0.43;;;;;;;20.90;54.05;95808.13;4304559;32;20249;-59
2023/06/27 06:48:47;;;;;;;0.20;0.20;;;;;;;21.14;53.87;95815.28;4322300;32;20236;-59
2023/06/27 06:51:15;;;;;;;0.90;0.90;;;;;;;21.14;52.89;95824.16;4339537;32;20252;-59
2023/06/27 06:53:41;;;;;;;1.00;0.87;;;;;;;21.29;53.47;95822.63;4354460;32;20180;-59
2023/06/27 06:56:08;;;;;;;1.13;0.80;;;;;;;21.25;53.29;95825.22;4308504;32;20307;-59
2023/06/27 06:59:06;;;;;;;0.60;0.60;;;;;;;21.28;53.28;95821.06;4337770;32;20260;-59
2023/06/27 07:01:33;;;;;;;0.73;0.63;;;;;;;21.34;52.94;95821.59;4349028;32;20315;-59
2023/06/27 07:03:59;;;;;;;0.13;0.13;;;;;;;21.06;52.50;95822.41;4318581;32;20189;-60
2023/06/27 07:06:28;;;;;;;1.07;0.97;;;;;;;20.88;51.59;95826.59;4338396;32;20197;-59
2023/06/27 07:08:56;;;;;;;0.97;0.97;;;;;;;21.10;54.18;95826.00;4333288;32;20226;-59
2023/06/27 07:11:23;;;;;;;2.37;1.27;;;;;;;21.15;54.44;95824.94;4316372;32;20243;-60
2023/06/27 07:13:49;;;;;;;1.17;1.07;;;;;;;21.19;53.93;95826.63;4316450;32;20206;-60
2023/06/27 07:16:14;;;;;;;5.30;0.90;;;;;;;21.24;54.94;95823.66;4341512;32;20193;-59
2023/06/27 07:18:41;;;;;;;0.40;0.40;;;;;;;21.29;53.89;95819.13;4324056;32;20303;-60
2023/06/27 07:21:08;;;;;;;0.30;0.30;;;;;;;21.22;52.11;95815.13;4341020;32;20219;-59
2023/06/27 07:23:36;;;;;;;0.40;0.40;;;;;;;21.25;53.84;95819.84;4318007;32;20217;-59
2023/06/27 07:26:04;;;;;;;0.40;0.40;;;;;;;21.38;54.50;95817.84;4348283;32;20224;-59
2023/06/27 07:28:30;;;;;;;0.57;0.57;;;;;;;21.33;53.46;95814.63;4329471;32;20193;-59
2023/06/27 07:30:56;;;;;;;0.20;0.20;;;;;;;21.44;53.07;95811.00;4314400;32;20205;-59
2023/06/27 07:33:21;;;;;;;0.30;0.30;;;;;;;21.58;53.61;95799.78;4355177;32;20239;-61
2023/06/27 07:35:49;;;;;;;0.60;0.60;;;;;;;21.52;52.47;95801.16;4335124;32;20181;-59
2023/06/27 07:38:16;;;;;;;0.20;0.20;;;;;;;21.73;52.73;95796.25;4346634;32;20212;-59
2023/06/27 07:40:44;;;;;;;0.13;0.13;;;;;;;21.68;52.65;95799.22;4353629;32;20311;-60
2023/06/27 07:43:11;;;;;;;0.23;0.23;;;;;;;21.29;50.17;95797.53;4324580;32;20337;-59
2023/06/27 07:45:37;;;;;;;0.40;0.40;;;;;;;21.24;49.89;95807.47;4331715;32;20195;-59
2023/06/27 07:48:06;;;;;;;0.23;0.23;;;;;;;21.19;53.66;95807.72;4291342;32;20284;-60
2023/06/27 07:50:31;;;;;;;0.47;0.47;;;;;;;21.36;53.43;95808.53;4313675;32;20197;-59
2023/06/27 07:52:59;;;;;;;0.37;0.37;;;;;;;21.56;53.10;95810.13;4340000;32;20207;-59
2023/06/27 07:55:25;;;;;;;0.23;0.23;;;;;;;21.41;52.70;95805.53;4323620;32;20185;-59
2023/06/27 07:57:52;;;;;;;0.63;0.63;;;;;;;21.10;53.92;95800.91;4317250;32;20190;-60
2023/06/27 08:00:18;;;;;;;0.50;0.50;;;;;;;21.05;54.35;95811.97;4316628;32;20262;-59
2023/06/27 08:02:44;;;;;;;0.73;0.73;;;;;;;20.76;51.59;95802.41;4333083;32;20193;-59
2023/06/27 08:05:09;;;;;;;0.30;0.30;;;;;;;21.16;52.97;95797.62;4335879;32;20237;-60
2023/06/27 08:07:36;;;;;;;0.80;0.80;;;;;;;21.33;53.46;95787.63;4335008;32;20259;-59
2023/06/27 08:10:03;;;;;;;13.43;1.90;;;;;;;20.69;51.20;95792.19;4307873;32;20292;-60
2023/06/27 08:12:33;;;;;;;0.37;0.37;;;;;;;20.96;53.93;95787.09;4322010;32;20263;-60
2023/06/27 08:14:59;;;;;;;0.40;0.40;;;;;;;20.82;50.90;95801.78;4320054;32;20254;-59
2023/06/27 08:17:26;;;;;;;0.80;0.50;;;;;;;20.68;51.13;95796.03;4314857;32;20216;-59
2023/06/27 08:19:53;;;;;;;1.90;0.90;;;;;;;20.82;50.98;95801.78;4322959;32;20202;-59
2023/06/27 08:22:19;;;;;;;4.47;0.87;;;;;;;20.74;52.74;95796.56;4339310;32;20264;-61
2023/06/27 08:24:45;;;;;;;0.47;0.47;;;;;;;20.58;51.14;95796.50;4338828;32;20197;-59
2023/06/27 08:27:11;;;;;;;0.37;0.37;;;;;;;20.82;53.98;95790.19;4293796;32;20194;-59
2023/06/27 08:29:37;;;;;;;0.53;0.53;;;;;;;21.18;55.28;95800.75;4308004;32;20197;-59
2023/06/27 08:32:05;;;;;;;0.73;0.73;;;;;;;21.01;52.27;95798.38;4292433;32;20267;-60
2023/06/27 08:34:33;;;;;;;0.37;0.33;;;;;;;21.18;55.32;95795.34;4341976;32;20185;-60
2023/06/27 08:37:01;;;;;;;0.30;0.30;;;;;;;20.93;49.10;95794.75;4324396;32;20209;-60
2023/06/27 08:39:28;;;;;;;0.40;0.40;;;;;;;20.82;48.69;95790.19;4291303;32;20190;-59
2023/06/27 08:41:55;;;;;;;0.57;0.57;;;;;;;20.91;49.20;95793.53;4318091;32;20200;-60
2023/06/27 08:44:21;;;;;;;1.40;1.07;;;;;;;20.93;51.74;95789.34;4318169;32;20223;-60
2023/06/27 08:46:48;;;;;;;1.40;0.40;;;;;;;21.13;52.30;95789.44;4343705;32;20212;-60
2023/06/27 08:49:28;;;;;;;0.83;0.83;;;;;;;21.01;48.02;95781.41;4345281;32;20197;-59
2023/06/27 08:52:01;;;;;;;0.37;0.37;;;;;;;21.28;52.49;95791.34;4337112;32;20223;-59
2023/06/27 08:54:39;;;;;;;0.33;0.33;;;;;;;21.45;52.41;95785.59;4330948;32;20185;-59
2023/06/27 08:57:17;;;;;;;1.23;0.80;;;;;;;21.72;53.40;95778.47;4332145;32;20252;-58
2023/06/27 08:59:46;;;;;;;0.30;0.30;;;;;;;21.76;49.41;95771.22;4287663;32;20373;-60
2023/06/27 09:02:12;;;;;;;0.50;0.33;;;;;;;21.84;52.02;95774.84;4343516;32;20223;-59
2023/06/27 09:04:41;;;;;;;0.10;0.10;;;;;;;21.74;44.93;95770.81;4319182;32;20182;-60
2023/06/27 09:07:10;;;;;;;0.20;0.20;;;;;;;21.50;43.61;95771.03;4318851;32;20204;-60
2023/06/27 09:09:40;;;;;;;0.73;0.73;;;;;;;21.41;46.89;95782.00;4315711;32;20184;-60
2023/06/27 09:12:11;;;;;;;0.47;0.47;;;;;;;21.56;47.45;95770.41;4310932;32;20178;-60
2023/06/27 09:14:37;;;;;;;0.20;0.20;;;;;;;21.45;45.87;95768.59;4335087;32;20255;-59
2023/06/27 09:17:04;;;;;;;0.40;0.40;;;;;;;21.59;49.24;95758.91;4321742;32;20236;-60
2023/06/27 09:19:32;;;;;;;1.27;0.80;;;;;;;21.59;47.37;95764.31;4340426;32;20204;-59
2023/06/27 09:22:00;;;;;;;0.50;0.50;;;;;;;21.70;49.57;95769.16;4342905;32;20197;-60
2023/06/27 09:24:27;;;;;;;2.20;0.60;;;;;;;21.56;45.73;95775.03;4328537;32;20245;-60
2023/06/27 09:26:52;;;;;;;0.93;0.90;;;;;;;21.62;47.36;95779.00;4337358;32;20185;-59
2023/06/27 09:29:19;;;;;;;0.70;0.70;;;;;;;21.60;48.13;95765.09;4330858;32;20240;-60
2023/06/27 09:31:46;;;;;;;0.70;0.70;;;;;;;21.83;51.22;95770.59;4314991;32;20196;-59
2023/06/27 09:34:13;;;;;;;1.47;0.40;;;;;;;21.92;49.53;95774.66;4298294;32;20216;-60
2023/06/27 09:36:43;;;;;;;0.10;0.10;;;;;;;22.06;50.70;95771.47;4323085;32;20259;-60
2023/06/27 09:39:16;;;;;;;0.63;0.63;;;;;;;21.98;46.10;95767.06;4333134;32;20252;-60
2023/06/27 09:41:48;;;;;;;2.23;0.87;;;;;;;22.19;49.37;95764.03;4329806;32;20241;-60
2023/06/27 09:44:25;;;;;;;0.63;0.63;;;;;;;22.26;48.91;95758.75;4335750;32;20227;-59
2023/06/27 09:46:52;;;;;;;0.73;0.73;;;;;;;21.93;45.88;95757.31;4277558;32;20190;-58
2023/06/27 09:49:58;;;;;;;0.20;0.20;;;;;;;21.99;49.55;95759.72;4313325;32;20201;-59
2023/06/27 09:52:27;;;;;;;0.40;0.40;;;;;;;22.19;49.68;95748.59;4327272;32;20201;-59
2023/06/27 09:54:53;;;;;;;0.83;0.83;;;;;;;22.01;47.13;95752.09;4314992;32;20204;-59
2023/06/27 09:57:42;;;;;;;0.50;0.40;;;;;;;22.22;48.45;95741.69;4334383;32;20189;-59
2023/06/27 10:00:08;;;;;;;0.77;0.77;;;;;;;22.45;48.41;95747.91;4348072;32;20196;-60
2023/06/27 10:02:36;;;;;;;0.60;0.60;;;;;;;21.95;48.43;95748.84;4336931;32;20194;-60
2023/06/27 10:05:03;;;;;;;0.97;0.97;;;;;;;21.88;45.34;95744.06;4344378;32;20217;-58
2023/06/27 10:07:51;;;;;;;0.20;0.20;;;;;;;21.62;48.18;95739.28;4313238;32;20193;-58
2023/06/27 10:10:19;;;;;;;2.77;0.57;;;;;;;21.72;49.81;95743.34;4307486;32;20208;-58
2023/06/27 10:12:46;;;;;;;1.33;1.23;;;;;;;21.86;48.72;95740.94;4334917;32;20209;-58
2023/06/27 10:15:17;;;;;;;0.60;0.60;;;;;;;21.86;44.41;95743.66;4318077;32;20287;-58
2023/06/27 10:17:45;;;;;;;0.20;0.20;;;;;;;22.10;49.08;95747.22;4299483;32;20256;-59
2023/06/27 10:20:16;;;;;;;0.40;0.40;;;;;;;22.20;48.63;95744.75;4299251;32;20206;-59
2023/06/27 10:22:50;;;;;;;0.60;0.60;;;;;;;22.35;45.83;95734.97;4282175;32;20215;-59
2023/06/27 10:25:22;;;;;;;0.27;0.27;;;;;;;22.36;47.95;95728.44;4262623;32;20201;-59
2023/06/27 10:28:07;;;;;;;0.20;0.20;;;;;;;22.31;46.32;95736.84;4300002;32;20198;-59
2023/06/27 10:30:37;;;;;;;0.60;0.50;;;;;;;22.33;48.46;95737.25;4316675;32;20246;-58
2023/06/27 10:33:11;;;;;;;0.20;0.20;;;;;;;22.08;45.89;95736.00;4329414;32;20243;-59
2023/06/27 10:35:56;;;;;;;1.23;0.80;;;;;;;22.33;47.62;95731.06;4333845;32;20185;-59
2023/06/27 10:38:34;;;;;;;0.53;0.53;;;;;;;22.38;47.29;95731.56;4313205;32;20199;-58
2023/06/27 10:41:33;;;;;;;1.17;1.17;;;;;;;22.37;47.06;95726.50;4306718;32;20289;-59
2023/06/27 10:44:10;;;;;;;1.70;1.70;;;;;;;22.49;47.09;95723.63;4336791;32;20229;-59
2023/06/27 10:46:40;;;;;;;3.70;3.40;;;;;;;22.61;46.36;95726.97;4348004;32;20188;-59
2023/06/27 10:49:07;;;;;;;3.80;3.47;;;;;;;22.58;46.59;95718.78;4342523;32;20181;-59
2023/06/27 10:51:41;;;;;;;2.53;2.33;;;;;;;22.55;47.21;95722.97;4323692;32;20204;-58
2023/06/27 10:54:15;;;;;;;3.67;2.50;;;;;;;22.40;45.26;95729.28;4343244;32;20244;-59
2023/06/27 10:56:51;;;;;;;2.53;1.73;;;;;;;22.45;47.27;95728.97;4347267;32;20220;-59
2023/06/27 10:59:26;;;;;;;1.93;1.83;;;;;;;22.28;47.55;95730.22;4314855;32;20201;-59
2023/06/27 11:02:04;;;;;;;1.30;1.20;;;;;;;22.08;48.30;95725.97;4317286;32;20208;-59
2023/06/27 11:04:43;;;;;;;5.93;1.07;;;;;;;22.04;48.43;95740.53;4352074;32;20208;-59
2023/06/27 11:07:21;;;;;;;0.70;0.70;;;;;;;22.15;47.92;95736.16;4309850;32;20272;-59
2023/06/27 11:09:53;;;;;;;0.20;0.20;;;;;;;22.25;47.46;95730.94;4284770;32;20197;-59
2023/06/27 11:12:22;;;;;;;0.50;0.50;;;;;;;22.32;47.38;95730.28;4337723;32;20204;-59
2023/06/27 11:14:54;;;;;;;0.80;0.67;;;;;;;22.24;47.36;95728.56;4310253;32;20198;-59
2023/06/27 11:17:22;;;;;;;0.73;0.63;;;;;;;22.08;47.57;95722.47;4319569;32;20181;-59
2023/06/27 11:19:56;;;;;;;0.67;0.40;;;;;;;22.08;47.48;95720.56;4345341;32;20212;-59
2023/06/27 11:22:23;;;;;;;0.60;0.60;;;;;;;21.85;46.71;95723.16;4335801;32;20215;-59
2023/06/27 11:24:51;;;;;;;0.70;0.70;;;;;;;22.00;48.04;95723.47;4346390;32;20221;-59
2023/06/27 11:27:19;;;;;;;0.77;0.77;;;;;;;21.62;45.76;95725.00;4343319;32;20216;-59
2023/06/27 11:29:57;;;;;;;0.50;0.50;;;;;;;21.80;48.66;95723.47;4294862;32;20237;-60
2023/06/27 11:32:27;;;;;;;0.60;0.60;;;;;;;21.96;48.84;95728.81;4341251;32;20288;-59
2023/06/27 11:34:54;;;;;;;0.93;0.93;;;;;;;22.10;48.24;95718.28;4323938;32;20253;-60
2023/06/27 11:37:20;;;;;;;1.30;0.90;;;;;;;22.11;48.58;95721.78;4318951;32;20212;-60
2023/06/27 11:40:07;;;;;;;0.50;0.50;;;;;;;22.20;48.38;95723.13;4320723;32;20197;-59
2023/06/27 11:42:35;;;;;;;0.67;0.67;;;;;;;22.25;47.94;95713.91;4318381;32;20233;-60